sensor_id;sensor_type;location;lat;lon;timestamp;temperature;humidity
60848;DHT22;46681;47.696;9.140;2024-03-17T00:00:45;11.80;73.10
60848;DHT22;46681;47.696;9.140;2024-03-17T00:03:10;11.80;71.90
60848;DHT22;46681;47.696;9.140;2024-03-17T00:05:36;11.80;71.80
60848;DHT22;46681;47.696;9.140;2024-03-17T00:08:04;11.80;71.50
60848;DHT22;46681;47.696;9.140;2024-03-17T00:10:35;11.70;71.20
60848;DHT22;46681;47.696;9.140;2024-03-17T00:13:01;11.80;71.40
60848;DHT22;46681;47.696;9.140;2024-03-17T00:15:27;11.80;71.10
60848;DHT22;46681;47.696;9.140;2024-03-17T00:17:53;11.80;70.90
60848;DHT22;46681;47.696;9.140;2024-03-17T00:20:19;11.80;70.60
60848;DHT22;46681;47.696;9.140;2024-03-17T00:22:47;11.80;70.50
60848;DHT22;46681;47.696;9.140;2024-03-17T00:25:14;11.80;70.50
60848;DHT22;46681;47.696;9.140;2024-03-17T00:27:40;11.80;70.30
60848;DHT22;46681;47.696;9.140;2024-03-17T00:30:07;11.80;70.30
60848;DHT22;46681;47.696;9.140;2024-03-17T00:32:33;11.80;70.00
60848;DHT22;46681;47.696;9.140;2024-03-17T00:34:58;11.80;69.90
60848;DHT22;46681;47.696;9.140;2024-03-17T00:37:26;11.80;69.90
60848;DHT22;46681;47.696;9.140;2024-03-17T00:39:52;11.80;69.70
60848;DHT22;46681;47.696;9.140;2024-03-17T00:42:18;11.80;69.80
60848;DHT22;46681;47.696;9.140;2024-03-17T00:44:45;11.80;69.70
60848;DHT22;46681;47.696;9.140;2024-03-17T00:47:12;11.80;70.30
60848;DHT22;46681;47.696;9.140;2024-03-17T00:49:39;11.80;69.80
60848;DHT22;46681;47.696;9.140;2024-03-17T00:52:06;11.80;69.70
60848;DHT22;46681;47.696;9.140;2024-03-17T00:54:33;11.80;69.70
60848;DHT22;46681;47.696;9.140;2024-03-17T00:56:59;11.80;69.70
60848;DHT22;46681;47.696;9.140;2024-03-17T00:59:25;11.80;69.60
60848;DHT22;46681;47.696;9.140;2024-03-17T01:01:52;11.80;69.60
60848;DHT22;46681;47.696;9.140;2024-03-17T01:04:18;11.80;69.60
60848;DHT22;46681;47.696;9.140;2024-03-17T01:06:45;11.80;69.70
60848;DHT22;46681;47.696;9.140;2024-03-17T01:09:12;11.80;69.60
60848;DHT22;46681;47.696;9.140;2024-03-17T01:11:38;11.80;69.60
60848;DHT22;46681;47.696;9.140;2024-03-17T01:14:05;11.80;69.70
60848;DHT22;46681;47.696;9.140;2024-03-17T01:16:36;11.80;69.80
60848;DHT22;46681;47.696;9.140;2024-03-17T01:19:02;11.80;69.70
60848;DHT22;46681;47.696;9.140;2024-03-17T01:21:27;11.80;69.90
60848;DHT22;46681;47.696;9.140;2024-03-17T01:23:55;11.80;69.70
60848;DHT22;46681;47.696;9.140;2024-03-17T01:26:21;11.80;69.60
60848;DHT22;46681;47.696;9.140;2024-03-17T01:28:47;11.90;69.50
60848;DHT22;46681;47.696;9.140;2024-03-17T01:31:12;12.10;73.00
60848;DHT22;46681;47.696;9.140;2024-03-17T01:33:37;12.10;71.90
60848;DHT22;46681;47.696;9.140;2024-03-17T01:36:03;12.10;71.30
60848;DHT22;46681;47.696;9.140;2024-03-17T01:38:33;12.00;71.00
60848;DHT22;46681;47.696;9.140;2024-03-17T01:40:58;12.00;70.70
60848;DHT22;46681;47.696;9.140;2024-03-17T01:43:26;12.00;70.60
60848;DHT22;46681;47.696;9.140;2024-03-17T01:45:54;12.00;70.50
60848;DHT22;46681;47.696;9.140;2024-03-17T01:48:19;12.00;70.30
60848;DHT22;46681;47.696;9.140;2024-03-17T01:50:45;12.00;70.20
60848;DHT22;46681;47.696;9.140;2024-03-17T01:53:13;12.00;70.30
60848;DHT22;46681;47.696;9.140;2024-03-17T01:55:42;12.00;69.80
60848;DHT22;46681;47.696;9.140;2024-03-17T01:58:11;12.00;69.80
60848;DHT22;46681;47.696;9.140;2024-03-17T02:00:41;12.00;69.70
60848;DHT22;46681;47.696;9.140;2024-03-17T02:03:08;12.00;69.70
60848;DHT22;46681;47.696;9.140;2024-03-17T02:05:33;12.00;69.50
60848;DHT22;46681;47.696;9.140;2024-03-17T02:07:59;11.90;69.40
60848;DHT22;46681;47.696;9.140;2024-03-17T02:10:31;11.90;69.50
60848;DHT22;46681;47.696;9.140;2024-03-17T02:12:57;11.90;69.50
60848;DHT22;46681;47.696;9.140;2024-03-17T02:15:23;12.00;69.50
60848;DHT22;46681;47.696;9.140;2024-03-17T02:17:48;12.00;69.40
60848;DHT22;46681;47.696;9.140;2024-03-17T02:20:14;12.00;69.30
60848;DHT22;46681;47.696;9.140;2024-03-17T02:22:40;12.00;69.10
60848;DHT22;46681;47.696;9.140;2024-03-17T02:25:06;12.00;69.00
60848;DHT22;46681;47.696;9.140;2024-03-17T02:27:32;12.00;69.00
60848;DHT22;46681;47.696;9.140;2024-03-17T02:29:58;12.00;68.90
60848;DHT22;46681;47.696;9.140;2024-03-17T02:32:24;12.00;69.00
60848;DHT22;46681;47.696;9.140;2024-03-17T02:34:50;12.00;69.00
60848;DHT22;46681;47.696;9.140;2024-03-17T02:37:16;12.00;69.00
60848;DHT22;46681;47.696;9.140;2024-03-17T02:39:43;12.00;68.80
60848;DHT22;46681;47.696;9.140;2024-03-17T02:42:10;12.00;68.70
60848;DHT22;46681;47.696;9.140;2024-03-17T02:44:37;12.10;68.70
60848;DHT22;46681;47.696;9.140;2024-03-17T02:47:03;12.00;68.60
60848;DHT22;46681;47.696;9.140;2024-03-17T02:49:30;12.00;68.50
60848;DHT22;46681;47.696;9.140;2024-03-17T02:51:56;12.00;68.50
60848;DHT22;46681;47.696;9.140;2024-03-17T02:54:22;12.00;68.60
60848;DHT22;46681;47.696;9.140;2024-03-17T02:56:51;12.00;68.60
60848;DHT22;46681;47.696;9.140;2024-03-17T02:59:16;12.00;68.70
60848;DHT22;46681;47.696;9.140;2024-03-17T03:01:42;12.00;68.60
60848;DHT22;46681;47.696;9.140;2024-03-17T03:04:17;12.00;68.90
60848;DHT22;46681;47.696;9.140;2024-03-17T03:06:42;12.00;68.30
60848;DHT22;46681;47.696;9.140;2024-03-17T03:09:08;12.00;68.20
60848;DHT22;46681;47.696;9.140;2024-03-17T03:11:33;12.00;68.10
60848;DHT22;46681;47.696;9.140;2024-03-17T03:14:01;12.00;68.10
60848;DHT22;46681;47.696;9.140;2024-03-17T03:16:27;12.00;68.10
60848;DHT22;46681;47.696;9.140;2024-03-17T03:18:52;12.00;68.10
60848;DHT22;46681;47.696;9.140;2024-03-17T03:21:17;12.00;68.30
60848;DHT22;46681;47.696;9.140;2024-03-17T03:23:47;12.00;68.30
60848;DHT22;46681;47.696;9.140;2024-03-17T03:26:12;12.00;68.00
60848;DHT22;46681;47.696;9.140;2024-03-17T03:28:38;12.00;67.70
60848;DHT22;46681;47.696;9.140;2024-03-17T03:31:04;12.10;67.80
60848;DHT22;46681;47.696;9.140;2024-03-17T03:33:30;12.00;67.60
60848;DHT22;46681;47.696;9.140;2024-03-17T03:35:56;12.00;67.60
60848;DHT22;46681;47.696;9.140;2024-03-17T03:38:23;12.00;67.60
60848;DHT22;46681;47.696;9.140;2024-03-17T03:40:51;11.90;67.70
60848;DHT22;46681;47.696;9.140;2024-03-17T03:43:16;11.90;67.80
60848;DHT22;46681;47.696;9.140;2024-03-17T03:45:43;11.90;67.90
60848;DHT22;46681;47.696;9.140;2024-03-17T03:48:08;11.90;67.70
60848;DHT22;46681;47.696;9.140;2024-03-17T03:50:35;12.00;67.60
60848;DHT22;46681;47.696;9.140;2024-03-17T03:53:00;12.00;67.40
60848;DHT22;46681;47.696;9.140;2024-03-17T03:55:27;12.00;67.20
60848;DHT22;46681;47.696;9.140;2024-03-17T03:57:53;12.00;67.40
60848;DHT22;46681;47.696;9.140;2024-03-17T04:00:19;12.00;67.40
60848;DHT22;46681;47.696;9.140;2024-03-17T04:02:45;11.90;67.30
60848;DHT22;46681;47.696;9.140;2024-03-17T04:05:10;11.90;67.50
60848;DHT22;46681;47.696;9.140;2024-03-17T04:07:36;11.90;67.50
60848;DHT22;46681;47.696;9.140;2024-03-17T04:10:03;11.90;67.40
60848;DHT22;46681;47.696;9.140;2024-03-17T04:12:31;12.00;67.30
60848;DHT22;46681;47.696;9.140;2024-03-17T04:14:58;11.90;67.10
60848;DHT22;46681;47.696;9.140;2024-03-17T04:17:23;11.90;67.10
60848;DHT22;46681;47.696;9.140;2024-03-17T04:19:50;11.90;67.10
60848;DHT22;46681;47.696;9.140;2024-03-17T04:22:16;11.90;67.00
60848;DHT22;46681;47.696;9.140;2024-03-17T04:24:43;11.90;67.20
60848;DHT22;46681;47.696;9.140;2024-03-17T04:27:09;11.90;67.30
60848;DHT22;46681;47.696;9.140;2024-03-17T04:29:35;11.80;67.20
60848;DHT22;46681;47.696;9.140;2024-03-17T04:32:00;11.90;67.10
60848;DHT22;46681;47.696;9.140;2024-03-17T04:34:30;11.90;67.40
60848;DHT22;46681;47.696;9.140;2024-03-17T04:36:55;12.10;68.60
60848;DHT22;46681;47.696;9.140;2024-03-17T04:39:23;12.00;67.90
60848;DHT22;46681;47.696;9.140;2024-03-17T04:41:50;12.00;67.70
60848;DHT22;46681;47.696;9.140;2024-03-17T04:44:16;11.90;67.50
60848;DHT22;46681;47.696;9.140;2024-03-17T04:46:41;11.90;67.90
60848;DHT22;46681;47.696;9.140;2024-03-17T04:49:11;11.90;67.30
60848;DHT22;46681;47.696;9.140;2024-03-17T04:51:38;11.90;67.30
60848;DHT22;46681;47.696;9.140;2024-03-17T04:54:06;11.90;67.20
60848;DHT22;46681;47.696;9.140;2024-03-17T04:56:31;11.90;67.00
60848;DHT22;46681;47.696;9.140;2024-03-17T04:58:57;11.90;67.00
60848;DHT22;46681;47.696;9.140;2024-03-17T05:01:22;11.90;66.80
60848;DHT22;46681;47.696;9.140;2024-03-17T05:03:51;11.80;66.80
60848;DHT22;46681;47.696;9.140;2024-03-17T05:06:16;11.80;66.80
60848;DHT22;46681;47.696;9.140;2024-03-17T05:08:43;11.80;66.90
60848;DHT22;46681;47.696;9.140;2024-03-17T05:11:09;11.80;67.00
60848;DHT22;46681;47.696;9.140;2024-03-17T05:13:37;11.80;66.90
60848;DHT22;46681;47.696;9.140;2024-03-17T05:16:04;11.90;66.60
60848;DHT22;46681;47.696;9.140;2024-03-17T05:18:30;11.90;66.30
60848;DHT22;46681;47.696;9.140;2024-03-17T05:20:59;12.00;65.90
60848;DHT22;46681;47.696;9.140;2024-03-17T05:23:29;12.10;65.60
60848;DHT22;46681;47.696;9.140;2024-03-17T05:25:55;12.20;65.30
60848;DHT22;46681;47.696;9.140;2024-03-17T05:28:22;12.20;65.00
60848;DHT22;46681;47.696;9.140;2024-03-17T05:30:48;12.30;64.80
60848;DHT22;46681;47.696;9.140;2024-03-17T05:33:13;12.30;64.60
60848;DHT22;46681;47.696;9.140;2024-03-17T05:35:39;12.30;64.20
60848;DHT22;46681;47.696;9.140;2024-03-17T05:38:04;12.30;64.00
60848;DHT22;46681;47.696;9.140;2024-03-17T05:40:31;12.30;64.00
60848;DHT22;46681;47.696;9.140;2024-03-17T05:42:57;12.30;64.00
60848;DHT22;46681;47.696;9.140;2024-03-17T05:45:22;12.30;64.00
60848;DHT22;46681;47.696;9.140;2024-03-17T05:47:49;12.20;64.00
60848;DHT22;46681;47.696;9.140;2024-03-17T05:50:15;12.20;64.10
60848;DHT22;46681;47.696;9.140;2024-03-17T05:52:41;12.20;64.30
60848;DHT22;46681;47.696;9.140;2024-03-17T05:55:08;12.10;64.40
60848;DHT22;46681;47.696;9.140;2024-03-17T05:57:33;12.10;64.60
60848;DHT22;46681;47.696;9.140;2024-03-17T06:00:05;12.00;64.70
60848;DHT22;46681;47.696;9.140;2024-03-17T06:02:31;12.00;64.90
60848;DHT22;46681;47.696;9.140;2024-03-17T06:05:00;11.90;65.10
60848;DHT22;46681;47.696;9.140;2024-03-17T06:07:25;11.90;65.30
60848;DHT22;46681;47.696;9.140;2024-03-17T06:09:51;11.90;65.30
60848;DHT22;46681;47.696;9.140;2024-03-17T06:12:16;11.80;65.60
60848;DHT22;46681;47.696;9.140;2024-03-17T06:14:42;11.80;65.70
60848;DHT22;46681;47.696;9.140;2024-03-17T06:17:07;11.80;65.90
60848;DHT22;46681;47.696;9.140;2024-03-17T06:19:33;11.80;66.10
60848;DHT22;46681;47.696;9.140;2024-03-17T06:21:58;11.70;66.20
60848;DHT22;46681;47.696;9.140;2024-03-17T06:24:24;11.70;66.30
60848;DHT22;46681;47.696;9.140;2024-03-17T06:26:54;11.70;66.50
60848;DHT22;46681;47.696;9.140;2024-03-17T06:29:20;11.70;66.60
60848;DHT22;46681;47.696;9.140;2024-03-17T06:31:46;11.70;66.70
60848;DHT22;46681;47.696;9.140;2024-03-17T06:34:11;11.70;66.90
60848;DHT22;46681;47.696;9.140;2024-03-17T06:36:37;11.70;67.20
60848;DHT22;46681;47.696;9.140;2024-03-17T06:39:02;11.70;67.20
60848;DHT22;46681;47.696;9.140;2024-03-17T06:41:28;11.70;67.10
60848;DHT22;46681;47.696;9.140;2024-03-17T06:43:53;11.70;67.20
60848;DHT22;46681;47.696;9.140;2024-03-17T06:46:19;11.70;67.20
60848;DHT22;46681;47.696;9.140;2024-03-17T06:48:44;11.70;67.30
60848;DHT22;46681;47.696;9.140;2024-03-17T06:51:10;11.70;67.30
60848;DHT22;46681;47.696;9.140;2024-03-17T06:53:37;11.70;67.30
60848;DHT22;46681;47.696;9.140;2024-03-17T06:56:07;11.70;67.30
60848;DHT22;46681;47.696;9.140;2024-03-17T06:58:32;11.70;67.40
60848;DHT22;46681;47.696;9.140;2024-03-17T07:01:00;11.70;67.30
60848;DHT22;46681;47.696;9.140;2024-03-17T07:03:31;11.70;67.20
60848;DHT22;46681;47.696;9.140;2024-03-17T07:05:59;11.70;67.30
60848;DHT22;46681;47.696;9.140;2024-03-17T07:08:25;11.80;67.30
60848;DHT22;46681;47.696;9.140;2024-03-17T07:11:00;11.80;67.20
60848;DHT22;46681;47.696;9.140;2024-03-17T07:13:29;11.80;67.10
60848;DHT22;46681;47.696;9.140;2024-03-17T07:15:55;11.80;67.00
60848;DHT22;46681;47.696;9.140;2024-03-17T07:18:29;11.90;67.30
60848;DHT22;46681;47.696;9.140;2024-03-17T07:21:08;11.90;67.00
60848;DHT22;46681;47.696;9.140;2024-03-17T07:23:37;12.00;67.10
60848;DHT22;46681;47.696;9.140;2024-03-17T07:26:05;12.00;67.40
60848;DHT22;46681;47.696;9.140;2024-03-17T07:28:35;12.10;66.90
60848;DHT22;46681;47.696;9.140;2024-03-17T07:31:00;12.20;66.90
60848;DHT22;46681;47.696;9.140;2024-03-17T07:33:26;12.20;66.70
60848;DHT22;46681;47.696;9.140;2024-03-17T07:35:57;12.20;66.60
60848;DHT22;46681;47.696;9.140;2024-03-17T07:38:24;12.30;66.70
60848;DHT22;46681;47.696;9.140;2024-03-17T07:41:01;12.30;66.70
60848;DHT22;46681;47.696;9.140;2024-03-17T07:43:31;12.40;66.70
60848;DHT22;46681;47.696;9.140;2024-03-17T07:46:01;12.30;66.70
60848;DHT22;46681;47.696;9.140;2024-03-17T07:48:27;12.30;66.70
60848;DHT22;46681;47.696;9.140;2024-03-17T07:50:54;12.30;66.70
60848;DHT22;46681;47.696;9.140;2024-03-17T07:53:25;12.40;66.80
60848;DHT22;46681;47.696;9.140;2024-03-17T07:56:07;12.50;71.90
60848;DHT22;46681;47.696;9.140;2024-03-17T07:58:33;12.80;73.20
60848;DHT22;46681;47.696;9.140;2024-03-17T08:01:04;13.00;71.90
60848;DHT22;46681;47.696;9.140;2024-03-17T08:03:37;13.10;71.20
60848;DHT22;46681;47.696;9.140;2024-03-17T08:06:07;13.20;71.00
60848;DHT22;46681;47.696;9.140;2024-03-17T08:08:34;13.10;70.70
60848;DHT22;46681;47.696;9.140;2024-03-17T08:11:01;13.10;70.10
60848;DHT22;46681;47.696;9.140;2024-03-17T08:13:32;13.00;69.40
60848;DHT22;46681;47.696;9.140;2024-03-17T08:16:02;13.00;69.10
60848;DHT22;46681;47.696;9.140;2024-03-17T08:18:28;13.00;69.00
60848;DHT22;46681;47.696;9.140;2024-03-17T08:21:03;13.00;68.80
60848;DHT22;46681;47.696;9.140;2024-03-17T08:23:29;13.00;68.70
60848;DHT22;46681;47.696;9.140;2024-03-17T08:26:03;13.00;68.70
60848;DHT22;46681;47.696;9.140;2024-03-17T08:28:29;13.00;68.60
60848;DHT22;46681;47.696;9.140;2024-03-17T08:30:59;13.00;68.90
60848;DHT22;46681;47.696;9.140;2024-03-17T08:33:27;13.00;68.20
60848;DHT22;46681;47.696;9.140;2024-03-17T08:36:08;13.00;68.20
60848;DHT22;46681;47.696;9.140;2024-03-17T08:38:36;13.10;67.90
60848;DHT22;46681;47.696;9.140;2024-03-17T08:43:31;13.10;67.30
60848;DHT22;46681;47.696;9.140;2024-03-17T08:46:05;13.20;67.40
60848;DHT22;46681;47.696;9.140;2024-03-17T08:48:38;13.20;67.40
60848;DHT22;46681;47.696;9.140;2024-03-17T08:51:13;13.20;67.30
60848;DHT22;46681;47.696;9.140;2024-03-17T08:53:43;13.20;67.40
60848;DHT22;46681;47.696;9.140;2024-03-17T08:56:16;13.20;67.40
60848;DHT22;46681;47.696;9.140;2024-03-17T08:58:43;13.20;67.40
60848;DHT22;46681;47.696;9.140;2024-03-17T09:01:09;13.20;67.30
60848;DHT22;46681;47.696;9.140;2024-03-17T09:03:39;13.30;67.20
60848;DHT22;46681;47.696;9.140;2024-03-17T09:06:16;13.40;66.90
60848;DHT22;46681;47.696;9.140;2024-03-17T09:08:42;13.60;66.60
60848;DHT22;46681;47.696;9.140;2024-03-17T09:11:14;13.80;66.90
60848;DHT22;46681;47.696;9.140;2024-03-17T09:13:44;13.90;66.40
60848;DHT22;46681;47.696;9.140;2024-03-17T09:16:10;14.10;65.50
60848;DHT22;46681;47.696;9.140;2024-03-17T09:18:36;14.20;64.70
60848;DHT22;46681;47.696;9.140;2024-03-17T09:21:07;14.30;64.60
60848;DHT22;46681;47.696;9.140;2024-03-17T09:23:38;14.40;64.70
60848;DHT22;46681;47.696;9.140;2024-03-17T09:26:12;14.60;68.20
60848;DHT22;46681;47.696;9.140;2024-03-17T09:28:40;14.80;68.50
60848;DHT22;46681;47.696;9.140;2024-03-17T09:31:11;14.90;68.20
60848;DHT22;46681;47.696;9.140;2024-03-17T09:33:43;15.00;68.80
60848;DHT22;46681;47.696;9.140;2024-03-17T09:36:17;15.20;68.40
60848;DHT22;46681;47.696;9.140;2024-03-17T09:38:44;15.30;68.00
60848;DHT22;46681;47.696;9.140;2024-03-17T09:43:44;15.60;66.60
60848;DHT22;46681;47.696;9.140;2024-03-17T09:46:15;15.70;66.40
60848;DHT22;46681;47.696;9.140;2024-03-17T09:48:41;15.80;66.00
60848;DHT22;46681;47.696;9.140;2024-03-17T09:51:16;15.90;65.50
60848;DHT22;46681;47.696;9.140;2024-03-17T09:53:43;16.00;65.10
60848;DHT22;46681;47.696;9.140;2024-03-17T09:56:13;16.10;64.70
60848;DHT22;46681;47.696;9.140;2024-03-17T09:58:51;16.10;64.10
60848;DHT22;46681;47.696;9.140;2024-03-17T10:01:18;16.20;64.30
60848;DHT22;46681;47.696;9.140;2024-03-17T10:03:55;16.20;62.80
60848;DHT22;46681;47.696;9.140;2024-03-17T10:06:23;16.30;62.70
60848;DHT22;46681;47.696;9.140;2024-03-17T10:09:02;16.30;61.90
60848;DHT22;46681;47.696;9.140;2024-03-17T10:11:34;16.30;60.20
60848;DHT22;46681;47.696;9.140;2024-03-17T10:14:12;16.30;59.70
60848;DHT22;46681;47.696;9.140;2024-03-17T10:16:40;16.30;59.60
60848;DHT22;46681;47.696;9.140;2024-03-17T10:22:13;16.30;59.70
60848;DHT22;46681;47.696;9.140;2024-03-17T10:24:42;16.30;59.60
60848;DHT22;46681;47.696;9.140;2024-03-17T10:27:14;16.40;60.10
60848;DHT22;46681;47.696;9.140;2024-03-17T10:29:43;16.50;60.30
60848;DHT22;46681;47.696;9.140;2024-03-17T10:34:46;16.90;58.40
60848;DHT22;46681;47.696;9.140;2024-03-17T10:37:20;17.10;58.70
60848;DHT22;46681;47.696;9.140;2024-03-17T10:40:04;17.30;57.40
60848;DHT22;46681;47.696;9.140;2024-03-17T10:42:36;17.40;56.10
60848;DHT22;46681;47.696;9.140;2024-03-17T10:45:11;17.50;56.20
60848;DHT22;46681;47.696;9.140;2024-03-17T10:47:59;17.60;57.10
60848;DHT22;46681;47.696;9.140;2024-03-17T10:50:35;17.70;61.30
60848;DHT22;46681;47.696;9.140;2024-03-17T10:53:07;17.70;60.70
60848;DHT22;46681;47.696;9.140;2024-03-17T10:55:46;17.70;60.00
60848;DHT22;46681;47.696;9.140;2024-03-17T10:58:23;17.70;60.50
60848;DHT22;46681;47.696;9.140;2024-03-17T11:01:03;17.70;57.80
60848;DHT22;46681;47.696;9.140;2024-03-17T11:03:32;17.70;56.00
60848;DHT22;46681;47.696;9.140;2024-03-17T11:06:11;17.60;56.10
60848;DHT22;46681;47.696;9.140;2024-03-17T11:08:41;17.60;56.70
60848;DHT22;46681;47.696;9.140;2024-03-17T11:11:44;17.70;57.00
60848;DHT22;46681;47.696;9.140;2024-03-17T11:14:37;17.70;56.50
60848;DHT22;46681;47.696;9.140;2024-03-17T11:17:31;17.70;57.70
60848;DHT22;46681;47.696;9.140;2024-03-17T11:20:17;17.70;57.30
60848;DHT22;46681;47.696;9.140;2024-03-17T11:23:29;17.70;57.90
60848;DHT22;46681;47.696;9.140;2024-03-17T11:26:00;17.70;58.50
60848;DHT22;46681;47.696;9.140;2024-03-17T11:28:48;17.70;58.20
60848;DHT22;46681;47.696;9.140;2024-03-17T11:31:43;17.70;58.40
60848;DHT22;46681;47.696;9.140;2024-03-17T11:37:04;17.70;56.50
60848;DHT22;46681;47.696;9.140;2024-03-17T11:42:39;17.60;54.20
60848;DHT22;46681;47.696;9.140;2024-03-17T11:48:40;17.30;55.90
60848;DHT22;46681;47.696;9.140;2024-03-17T11:51:06;17.30;56.70
60848;DHT22;46681;47.696;9.140;2024-03-17T11:53:38;17.20;56.50
60848;DHT22;46681;47.696;9.140;2024-03-17T11:56:03;17.30;56.20
60848;DHT22;46681;47.696;9.140;2024-03-17T11:58:38;17.20;56.00
60848;DHT22;46681;47.696;9.140;2024-03-17T12:01:03;17.20;55.50
60848;DHT22;46681;47.696;9.140;2024-03-17T12:03:40;17.20;56.10
60848;DHT22;46681;47.696;9.140;2024-03-17T12:06:29;17.10;56.30
60848;DHT22;46681;47.696;9.140;2024-03-17T12:09:29;17.20;55.70
60848;DHT22;46681;47.696;9.140;2024-03-17T12:12:09;17.10;57.40
60848;DHT22;46681;47.696;9.140;2024-03-17T12:14:48;17.00;57.10
60848;DHT22;46681;47.696;9.140;2024-03-17T12:17:27;16.90;57.20
60848;DHT22;46681;47.696;9.140;2024-03-17T12:19:54;16.90;56.70
60848;DHT22;46681;47.696;9.140;2024-03-17T12:22:35;16.90;56.10
60848;DHT22;46681;47.696;9.140;2024-03-17T12:28:21;16.90;57.00
60848;DHT22;46681;47.696;9.140;2024-03-17T12:31:00;16.90;57.30
60848;DHT22;46681;47.696;9.140;2024-03-17T12:33:26;16.90;56.40
60848;DHT22;46681;47.696;9.140;2024-03-17T12:35:53;16.90;57.10
60848;DHT22;46681;47.696;9.140;2024-03-17T12:38:30;16.80;58.00
60848;DHT22;46681;47.696;9.140;2024-03-17T12:41:00;16.80;57.90
60848;DHT22;46681;47.696;9.140;2024-03-17T12:43:30;16.80;58.10
60848;DHT22;46681;47.696;9.140;2024-03-17T12:46:19;16.80;58.20
60848;DHT22;46681;47.696;9.140;2024-03-17T12:49:03;16.80;58.80
60848;DHT22;46681;47.696;9.140;2024-03-17T12:51:34;16.80;59.10
60848;DHT22;46681;47.696;9.140;2024-03-17T12:54:15;16.80;58.80
60848;DHT22;46681;47.696;9.140;2024-03-17T12:57:20;16.90;58.70
60848;DHT22;46681;47.696;9.140;2024-03-17T12:59:52;16.90;58.60
60848;DHT22;46681;47.696;9.140;2024-03-17T13:02:18;16.90;58.40
60848;DHT22;46681;47.696;9.140;2024-03-17T13:05:21;16.80;58.40
60848;DHT22;46681;47.696;9.140;2024-03-17T13:08:02;16.80;58.10
60848;DHT22;46681;47.696;9.140;2024-03-17T13:10:32;16.80;58.50
60848;DHT22;46681;47.696;9.140;2024-03-17T13:13:03;16.70;58.60
60848;DHT22;46681;47.696;9.140;2024-03-17T13:15:31;16.60;58.90
60848;DHT22;46681;47.696;9.140;2024-03-17T13:18:08;16.60;59.10
60848;DHT22;46681;47.696;9.140;2024-03-17T13:20:35;16.60;59.00
60848;DHT22;46681;47.696;9.140;2024-03-17T13:23:13;16.50;59.10
60848;DHT22;46681;47.696;9.140;2024-03-17T13:25:40;16.50;59.40
60848;DHT22;46681;47.696;9.140;2024-03-17T13:28:11;16.50;59.40
60848;DHT22;46681;47.696;9.140;2024-03-17T13:30:54;16.50;59.60
60848;DHT22;46681;47.696;9.140;2024-03-17T13:33:29;16.50;59.70
60848;DHT22;46681;47.696;9.140;2024-03-17T13:36:08;16.40;59.80
60848;DHT22;46681;47.696;9.140;2024-03-17T13:38:35;16.40;60.00
60848;DHT22;46681;47.696;9.140;2024-03-17T13:41:07;16.40;60.40
60848;DHT22;46681;47.696;9.140;2024-03-17T13:43:46;16.40;60.60
60848;DHT22;46681;47.696;9.140;2024-03-17T13:46:17;16.30;60.80
60848;DHT22;46681;47.696;9.140;2024-03-17T13:48:54;16.30;61.20
60848;DHT22;46681;47.696;9.140;2024-03-17T13:51:36;16.30;61.40
60848;DHT22;46681;47.696;9.140;2024-03-17T13:54:06;16.30;61.50
60848;DHT22;46681;47.696;9.140;2024-03-17T13:56:36;16.30;61.70
60848;DHT22;46681;47.696;9.140;2024-03-17T13:59:11;16.20;61.80
60848;DHT22;46681;47.696;9.140;2024-03-17T14:02:12;16.20;62.00
60848;DHT22;46681;47.696;9.140;2024-03-17T14:05:12;16.20;62.20
60848;DHT22;46681;47.696;9.140;2024-03-17T14:08:01;16.10;62.30
60848;DHT22;46681;47.696;9.140;2024-03-17T14:10:27;16.10;62.50
60848;DHT22;46681;47.696;9.140;2024-03-17T14:13:02;16.10;62.70
60848;DHT22;46681;47.696;9.140;2024-03-17T14:15:27;16.10;62.80
60848;DHT22;46681;47.696;9.140;2024-03-17T14:18:01;16.10;62.90
60848;DHT22;46681;47.696;9.140;2024-03-17T14:20:35;16.10;63.00
60848;DHT22;46681;47.696;9.140;2024-03-17T14:23:12;16.00;63.00
60848;DHT22;46681;47.696;9.140;2024-03-17T14:25:39;16.10;63.00
60848;DHT22;46681;47.696;9.140;2024-03-17T14:28:09;16.10;63.00
60848;DHT22;46681;47.696;9.140;2024-03-17T14:30:40;16.10;62.90
60848;DHT22;46681;47.696;9.140;2024-03-17T14:33:19;16.10;62.90
60848;DHT22;46681;47.696;9.140;2024-03-17T14:35:59;16.10;62.70
60848;DHT22;46681;47.696;9.140;2024-03-17T14:38:36;16.10;62.20
60848;DHT22;46681;47.696;9.140;2024-03-17T14:41:02;16.10;61.50
60848;DHT22;46681;47.696;9.140;2024-03-17T14:43:41;16.10;61.00
60848;DHT22;46681;47.696;9.140;2024-03-17T14:46:12;16.20;60.80
60848;DHT22;46681;47.696;9.140;2024-03-17T14:48:48;16.20;60.70
60848;DHT22;46681;47.696;9.140;2024-03-17T14:51:19;16.10;60.30
60848;DHT22;46681;47.696;9.140;2024-03-17T14:54:04;16.20;61.50
60848;DHT22;46681;47.696;9.140;2024-03-17T14:56:31;16.20;60.90
60848;DHT22;46681;47.696;9.140;2024-03-17T14:58:57;16.20;60.60
60848;DHT22;46681;47.696;9.140;2024-03-17T15:01:30;16.20;60.40
60848;DHT22;46681;47.696;9.140;2024-03-17T15:04:07;16.20;60.70
60848;DHT22;46681;47.696;9.140;2024-03-17T15:06:33;16.10;60.30
60848;DHT22;46681;47.696;9.140;2024-03-17T15:09:04;16.20;60.90
60848;DHT22;46681;47.696;9.140;2024-03-17T15:11:45;16.20;61.80
60848;DHT22;46681;47.696;9.140;2024-03-17T15:14:24;16.30;61.50
60848;DHT22;46681;47.696;9.140;2024-03-17T15:17:01;16.30;61.60
60848;DHT22;46681;47.696;9.140;2024-03-17T15:19:28;16.20;61.50
60848;DHT22;46681;47.696;9.140;2024-03-17T15:21:58;16.20;61.80
60848;DHT22;46681;47.696;9.140;2024-03-17T15:24:38;16.20;61.90
60848;DHT22;46681;47.696;9.140;2024-03-17T15:27:17;16.20;62.20
60848;DHT22;46681;47.696;9.140;2024-03-17T15:29:57;16.10;62.40
60848;DHT22;46681;47.696;9.140;2024-03-17T15:32:29;16.10;62.40
60848;DHT22;46681;47.696;9.140;2024-03-17T15:35:01;16.00;62.50
60848;DHT22;46681;47.696;9.140;2024-03-17T15:38:01;16.00;62.70
60848;DHT22;46681;47.696;9.140;2024-03-17T15:40:34;15.90;63.20
60848;DHT22;46681;47.696;9.140;2024-03-17T15:43:16;15.90;63.50
60848;DHT22;46681;47.696;9.140;2024-03-17T15:45:59;15.90;63.80
60848;DHT22;46681;47.696;9.140;2024-03-17T15:48:28;15.80;63.90
60848;DHT22;46681;47.696;9.140;2024-03-17T15:59:40;15.70;64.20
60848;DHT22;46681;47.696;9.140;2024-03-17T16:02:05;15.70;64.20
60848;DHT22;46681;47.696;9.140;2024-03-17T16:04:33;15.60;65.00
60848;DHT22;46681;47.696;9.140;2024-03-17T16:07:06;15.60;64.40
60848;DHT22;46681;47.696;9.140;2024-03-17T16:09:34;15.50;64.20
60848;DHT22;46681;47.696;9.140;2024-03-17T16:12:06;15.50;63.80
60848;DHT22;46681;47.696;9.140;2024-03-17T16:14:35;15.40;63.30
60848;DHT22;46681;47.696;9.140;2024-03-17T16:17:02;15.40;63.30
60848;DHT22;46681;47.696;9.140;2024-03-17T16:19:51;15.40;63.70
60848;DHT22;46681;47.696;9.140;2024-03-17T16:22:32;15.30;63.80